Time;durP1;ratioP1;P1;durP2;ratioP2;P2;SDS_P1;SDS_P2;PMS_P1;PMS_P2;Temp;Humidity;BMP_temperature;BMP_pressure;BME280_temperature;BME280_humidity;BME280_pressure;Samples;Min_cycle;Max_cycle;Signal;HPM_P1;HPM_P2
2022/07/24 00:01:47;;;;;;;15.80;12.73;;;;;;;19.89;78.32;102015.00;4966623;28;20031;-60
2022/07/24 00:04:13;;;;;;;13.43;11.48;;;;;;;19.78;79.26;102007.53;4956227;28;20505;-60
2022/07/24 00:06:38;;;;;;;15.70;12.45;;;;;;;19.75;79.83;102007.72;4947122;28;20047;-60
2022/07/24 00:09:04;;;;;;;16.35;11.90;;;;;;;19.73;79.99;102008.75;4947224;28;20063;-61
2022/07/24 00:11:29;;;;;;;15.57;11.30;;;;;;;19.66;79.96;102010.91;4946176;28;20486;-59
2022/07/24 00:13:55;;;;;;;12.63;10.20;;;;;;;19.63;79.85;102003.88;4947320;28;20389;-61
2022/07/24 00:16:20;;;;;;;15.55;12.63;;;;;;;19.66;79.78;101997.53;4947979;28;20019;-60
2022/07/24 00:18:45;;;;;;;16.60;13.43;;;;;;;19.72;79.43;101993.66;4966028;28;20034;-60
2022/07/24 00:21:11;;;;;;;19.35;14.32;;;;;;;19.76;79.70;101992.53;4966185;28;20030;-60
2022/07/24 00:23:36;;;;;;;16.45;13.38;;;;;;;19.77;79.35;101994.25;4966233;28;20734;-60
2022/07/24 00:26:02;;;;;;;22.38;13.13;;;;;;;19.76;79.32;101985.41;4964855;28;20031;-60
2022/07/24 00:28:27;;;;;;;19.17;14.70;;;;;;;19.73;79.77;101988.22;4965343;28;20035;-62
2022/07/24 00:30:53;;;;;;;17.80;14.10;;;;;;;19.65;80.53;101991.31;4965069;28;20572;-61
2022/07/24 00:33:18;;;;;;;17.45;12.30;;;;;;;19.60;79.98;101998.75;4949039;28;20382;-61
2022/07/24 00:35:44;;;;;;;19.52;13.52;;;;;;;19.56;80.50;101995.34;4965892;28;20022;-62
2022/07/24 00:38:09;;;;;;;18.70;13.23;;;;;;;19.59;80.12;101996.16;4965365;28;20035;-62
2022/07/24 00:40:34;;;;;;;17.58;14.45;;;;;;;19.58;80.19;101992.59;4966333;28;20023;-62
2022/07/24 00:43:00;;;;;;;20.55;15.85;;;;;;;19.56;80.71;101994.47;4964905;28;20110;-62
2022/07/24 00:45:25;;;;;;;18.95;16.13;;;;;;;19.51;81.36;101996.56;4948987;28;20334;-62
2022/07/24 00:47:52;;;;;;;22.13;16.67;;;;;;;19.44;81.54;102002.22;4965003;28;20102;-62
2022/07/24 00:50:17;;;;;;;19.33;16.27;;;;;;;19.41;81.85;101991.69;4964889;28;20030;-62
2022/07/24 00:52:44;;;;;;;20.40;15.90;;;;;;;19.40;82.02;101991.78;4965343;28;20153;-62
2022/07/24 00:55:10;;;;;;;19.60;14.75;;;;;;;19.36;81.76;101985.75;4965856;28;20437;-62
2022/07/24 00:57:36;;;;;;;21.70;15.43;;;;;;;19.31;82.45;101988.66;4967141;28;20549;-62
2022/07/24 01:00:05;;;;;;;22.98;16.38;;;;;;;19.29;82.37;101989.66;4968969;28;20103;-62
2022/07/24 01:02:31;;;;;;;20.08;15.40;;;;;;;19.30;82.39;101986.06;4969885;28;20087;-61
2022/07/24 01:04:56;;;;;;;19.73;15.25;;;;;;;19.34;82.46;101986.75;4968282;28;20019;-62
2022/07/24 01:07:21;;;;;;;20.92;14.88;;;;;;;19.34;82.57;101997.44;4968568;28;20046;-61
2022/07/24 01:09:47;;;;;;;21.20;14.05;;;;;;;19.37;81.90;101986.59;4969356;28;20035;-61
2022/07/24 01:12:12;;;;;;;17.88;14.05;;;;;;;19.39;82.03;101985.56;4965534;23;20048;-62
2022/07/24 01:14:39;;;;;;;20.63;14.63;;;;;;;19.40;82.00;101986.44;4950307;28;20034;-62
2022/07/24 01:17:04;;;;;;;18.75;13.73;;;;;;;19.48;81.63;101986.03;4950968;28;20042;-62
2022/07/24 01:19:30;;;;;;;26.80;14.32;;;;;;;19.51;81.37;101972.50;4949811;28;20063;-62
2022/07/24 01:21:55;;;;;;;19.05;14.32;;;;;;;19.56;80.92;101967.75;4950724;28;20091;-62
2022/07/24 01:24:21;;;;;;;22.05;13.50;;;;;;;19.59;80.75;101964.91;4949367;28;20482;-62
2022/07/24 01:26:47;;;;;;;19.63;14.25;;;;;;;19.67;80.43;101967.16;4950074;28;20500;-63
2022/07/24 01:29:13;;;;;;;19.65;14.02;;;;;;;19.74;79.54;101970.38;4932624;28;20470;-62
2022/07/24 01:31:38;;;;;;;21.20;14.70;;;;;;;19.70;80.07;101972.34;4949224;28;20086;-62
2022/07/24 01:34:04;;;;;;;19.27;13.82;;;;;;;19.69;79.65;101971.47;4950177;28;20031;-63
2022/07/24 01:36:30;;;;;;;16.33;13.38;;;;;;;19.65;79.91;101969.94;4949402;28;20070;-63
2022/07/24 01:38:55;;;;;;;22.38;14.02;;;;;;;19.66;79.94;101968.97;4950577;28;20035;-63
2022/07/24 01:41:20;;;;;;;18.92;12.85;;;;;;;19.69;79.28;101967.97;4947047;28;20031;-62
2022/07/24 01:43:46;;;;;;;19.35;13.10;;;;;;;19.72;79.49;101969.59;4949114;28;20038;-62
2022/07/24 01:46:11;;;;;;;18.48;13.40;;;;;;;19.72;79.43;101974.94;4948836;28;20031;-62
2022/07/24 01:48:38;;;;;;;24.80;14.80;;;;;;;19.75;79.03;101974.78;4948844;28;20370;-62
2022/07/24 01:51:03;;;;;;;19.33;13.63;;;;;;;19.72;79.09;101974.94;4949916;28;20122;-63
2022/07/24 01:53:29;;;;;;;21.30;14.45;;;;;;;19.66;79.32;101963.63;4948991;28;20042;-63
2022/07/24 01:55:54;;;;;;;19.50;13.32;;;;;;;19.72;78.93;101966.94;4949654;28;20043;-61
2022/07/24 01:58:19;;;;;;;21.58;14.23;;;;;;;19.76;78.61;101960.44;4947187;28;20055;-64
2022/07/24 02:00:45;;;;;;;18.23;12.10;;;;;;;19.71;79.04;101966.06;4949559;28;20064;-62
2022/07/24 02:03:11;;;;;;;20.45;13.30;;;;;;;19.67;79.03;101962.69;4948364;28;20051;-62
2022/07/24 02:05:36;;;;;;;19.15;13.05;;;;;;;19.55;79.62;101961.56;4949849;28;20036;-62
2022/07/24 02:08:02;;;;;;;22.77;13.38;;;;;;;19.46;80.45;101954.03;4948438;28;20027;-63
2022/07/24 02:10:28;;;;;;;21.60;14.60;;;;;;;19.39;81.21;101953.47;4948686;28;20035;-63
2022/07/24 02:12:54;;;;;;;22.20;14.48;;;;;;;19.32;81.12;101955.63;4930933;28;20043;-63
2022/07/24 02:15:19;;;;;;;20.58;15.20;;;;;;;19.33;81.34;101951.16;4948935;28;20035;-62
2022/07/24 02:17:50;;;;;;;18.67;13.40;;;;;;;19.34;80.83;101957.34;4949129;28;20474;-62
2022/07/24 02:20:16;;;;;;;24.20;14.18;;;;;;;19.30;81.51;101954.84;4948691;28;20096;-62
2022/07/24 02:22:41;;;;;;;24.65;13.95;;;;;;;19.30;81.22;101943.31;4948924;28;20035;-63
2022/07/24 02:25:07;;;;;;;21.08;15.25;;;;;;;19.27;81.27;101944.31;4949138;28;20102;-63
2022/07/24 02:27:33;;;;;;;22.77;14.48;;;;;;;19.26;81.55;101947.09;4949143;28;20064;-63
2022/07/24 02:29:58;;;;;;;24.90;15.60;;;;;;;19.17;83.05;101937.75;4947988;28;20610;-62
2022/07/24 02:32:24;;;;;;;24.73;15.88;;;;;;;19.17;82.92;101937.75;4948206;28;20114;-63
2022/07/24 02:34:50;;;;;;;26.10;16.00;;;;;;;19.12;82.74;101940.69;4948379;28;20031;-63
2022/07/24 02:37:15;;;;;;;18.88;14.95;;;;;;;19.08;82.90;101939.09;4929596;28;20026;-63
2022/07/24 02:39:40;;;;;;;23.83;14.48;;;;;;;19.02;83.02;101934.06;4946668;28;20063;-62
2022/07/24 02:42:06;;;;;;;24.10;15.35;;;;;;;19.00;83.36;101934.16;4947476;28;20054;-63
2022/07/24 02:44:31;;;;;;;22.80;15.68;;;;;;;18.96;83.41;101929.03;4947156;28;20059;-63
2022/07/24 02:46:56;;;;;;;24.90;16.08;;;;;;;18.97;82.95;101936.97;4948635;28;20067;-62
2022/07/24 02:49:22;;;;;;;20.92;14.27;;;;;;;19.01;82.91;101937.66;4948015;28;20031;-63
2022/07/24 02:51:47;;;;;;;19.77;14.20;;;;;;;18.97;82.60;101928.09;4948324;28;20066;-61
2022/07/24 02:54:12;;;;;;;23.38;14.48;;;;;;;18.91;83.09;101927.44;4948008;28;20493;-61
2022/07/24 02:56:38;;;;;;;23.38;14.73;;;;;;;18.85;83.20;101921.59;4947676;28;20023;-62
2022/07/24 02:59:03;;;;;;;17.95;12.68;;;;;;;18.83;83.22;101927.00;4931947;29;20353;-62
2022/07/24 03:01:28;;;;;;;20.05;13.45;;;;;;;18.84;83.68;101928.72;4945951;28;20086;-62
2022/07/24 03:03:54;;;;;;;21.48;13.77;;;;;;;18.85;83.68;101916.25;4948561;28;20031;-61
2022/07/24 03:06:19;;;;;;;25.65;14.93;;;;;;;18.86;83.62;101909.94;4947353;28;20033;-61
2022/07/24 03:08:44;;;;;;;18.83;12.80;;;;;;;18.85;83.89;101910.91;4948594;28;20488;-64
2022/07/24 03:11:10;;;;;;;19.05;12.95;;;;;;;18.84;84.03;101899.34;4947092;28;20549;-61
2022/07/24 03:13:35;;;;;;;18.73;12.93;;;;;;;18.81;84.11;101910.19;4947420;28;20461;-61
2022/07/24 03:16:00;;;;;;;19.45;12.25;;;;;;;18.79;84.02;101902.25;4947933;28;20525;-62
2022/07/24 03:18:26;;;;;;;16.70;12.90;;;;;;;18.74;83.96;101895.44;4947194;28;20054;-63
2022/07/24 03:20:51;;;;;;;18.80;12.93;;;;;;;18.70;84.14;101900.09;4929746;28;20927;-62
2022/07/24 03:23:17;;;;;;;18.17;11.02;;;;;;;18.68;83.88;101892.16;4948095;28;20448;-62
2022/07/24 03:25:42;;;;;;;15.32;10.63;;;;;;;18.66;83.60;101886.03;4947409;28;20038;-63
2022/07/24 03:28:08;;;;;;;18.83;10.10;;;;;;;18.65;83.40;101891.44;4947387;28;20477;-63
2022/07/24 03:30:33;;;;;;;18.38;9.88;;;;;;;18.67;83.55;101887.75;4948121;28;20027;-61
2022/07/24 03:32:58;;;;;;;16.35;10.27;;;;;;;18.71;83.10;101887.59;4947149;28;20174;-61
2022/07/24 03:35:24;;;;;;;15.35;9.43;;;;;;;18.73;82.40;101886.59;4947105;28;20078;-63
2022/07/24 03:37:49;;;;;;;13.05;8.93;;;;;;;18.73;82.32;101891.06;4947028;28;20059;-63
2022/07/24 03:40:14;;;;;;;14.55;8.90;;;;;;;18.69;81.79;101883.19;4930850;28;20035;-62
2022/07/24 03:42:41;;;;;;;14.73;7.80;;;;;;;18.68;81.68;101885.94;4946095;28;20032;-61
2022/07/24 03:45:06;;;;;;;12.85;7.88;;;;;;;18.70;81.88;101886.75;4931507;29;20034;-63
2022/07/24 03:47:32;;;;;;;13.02;7.90;;;;;;;18.67;81.76;101893.06;4946828;28;20023;-61
2022/07/24 03:49:57;;;;;;;12.40;8.45;;;;;;;18.71;81.63;101892.91;4947442;28;20035;-62
2022/07/24 03:52:22;;;;;;;15.82;7.80;;;;;;;18.71;81.11;101892.91;4947739;28;20023;-63
2022/07/24 03:54:48;;;;;;;14.73;8.23;;;;;;;18.67;81.11;101903.75;4946584;28;20028;-63
2022/07/24 03:57:13;;;;;;;17.35;7.50;;;;;;;18.71;81.08;101908.94;4946119;28;20055;-61
2022/07/24 03:59:38;;;;;;;12.15;7.88;;;;;;;18.71;81.10;101899.13;4947073;28;20066;-62
2022/07/24 04:02:04;;;;;;;12.30;7.80;;;;;;;18.73;80.74;101901.72;4947600;28;20183;-61
2022/07/24 04:04:29;;;;;;;12.77;8.50;;;;;;;18.71;80.98;101914.28;4946575;28;20028;-62
2022/07/24 04:06:54;;;;;;;15.23;8.40;;;;;;;18.72;80.66;101910.69;4945254;28;20498;-62
2022/07/24 04:09:20;;;;;;;10.63;7.53;;;;;;;18.72;80.70;101900.00;4946654;28;20034;-62
2022/07/24 04:11:46;;;;;;;10.02;6.78;;;;;;;18.69;81.12;101893.88;4945760;28;20810;-62
2022/07/24 04:14:11;;;;;;;11.05;6.40;;;;;;;18.72;80.75;101892.00;4946985;28;20042;-62
2022/07/24 04:16:37;;;;;;;9.70;5.63;;;;;;;18.67;81.06;101893.06;4946515;28;20020;-63
2022/07/24 04:19:02;;;;;;;15.80;6.72;;;;;;;18.65;81.19;101886.97;4947504;28;20358;-63
2022/07/24 04:21:28;;;;;;;10.32;7.90;;;;;;;18.60;81.28;101893.50;4946402;28;20011;-62
2022/07/24 04:23:53;;;;;;;12.23;7.30;;;;;;;18.59;81.28;101895.28;4947287;28;20020;-63
2022/07/24 04:26:18;;;;;;;13.63;6.72;;;;;;;18.65;81.43;101878.97;4926687;28;20117;-61
2022/07/24 04:28:44;;;;;;;13.10;7.38;;;;;;;18.63;81.58;101883.50;4947036;28;20023;-62
2022/07/24 04:31:09;;;;;;;12.40;6.15;;;;;;;18.73;80.93;101880.38;4945267;28;20070;-62
2022/07/24 04:33:35;;;;;;;9.85;6.47;;;;;;;18.79;81.06;101888.06;4946355;28;20474;-62
2022/07/24 04:36:00;;;;;;;13.13;6.40;;;;;;;18.86;80.86;101892.13;4947034;28;20027;-62
2022/07/24 04:38:25;;;;;;;7.32;5.28;;;;;;;18.93;80.13;101887.31;4945830;28;20031;-62
2022/07/24 04:40:51;;;;;;;9.52;6.22;;;;;;;19.01;79.63;101886.91;4946699;28;20034;-62
2022/07/24 04:43:16;;;;;;;6.63;5.13;;;;;;;19.04;80.05;101895.66;4946245;28;20031;-62
2022/07/24 04:45:42;;;;;;;10.63;4.47;;;;;;;19.12;79.26;101895.28;4946545;28;20494;-62
2022/07/24 04:48:07;;;;;;;9.80;5.10;;;;;;;19.18;77.99;101900.25;4946973;28;20073;-63
2022/07/24 04:50:33;;;;;;;8.43;4.53;;;;;;;19.29;78.01;101899.69;4945361;28;20070;-62
2022/07/24 04:52:59;;;;;;;8.60;4.40;;;;;;;19.31;77.33;101892.47;4946863;28;20103;-62
2022/07/24 04:55:24;;;;;;;11.93;4.70;;;;;;;19.35;77.29;101897.66;4926445;28;20437;-63
2022/07/24 04:57:50;;;;;;;10.25;4.10;;;;;;;19.38;77.36;101895.66;4946032;28;20470;-62
2022/07/24 05:00:15;;;;;;;6.00;4.25;;;;;;;19.40;77.00;101899.13;4946572;28;20035;-63
2022/07/24 05:02:41;;;;;;;5.22;3.97;;;;;;;19.53;76.17;101903.75;4945873;28;20027;-63
2022/07/24 05:05:07;;;;;;;3.75;3.30;;;;;;;19.63;75.39;101907.66;4947320;28;20036;-62
2022/07/24 05:07:32;;;;;;;5.82;3.90;;;;;;;19.68;74.73;101913.63;4929109;28;20027;-62
2022/07/24 05:09:57;;;;;;;4.70;3.88;;;;;;;19.74;74.66;101909.72;4946088;28;20035;-62
2022/07/24 05:12:24;;;;;;;6.22;3.95;;;;;;;19.67;74.83;101903.00;4927062;28;20134;-63
2022/07/24 05:14:49;;;;;;;4.93;3.38;;;;;;;19.81;74.85;101899.56;4946572;28;20047;-62
2022/07/24 05:17:15;;;;;;;4.07;3.45;;;;;;;19.87;74.31;101904.53;4929372;29;20061;-62
2022/07/24 05:19:40;;;;;;;5.65;3.75;;;;;;;19.94;74.39;101900.59;4946089;28;20489;-63
2022/07/24 05:22:06;;;;;;;6.15;3.25;;;;;;;20.09;74.01;101906.03;4928724;28;20062;-63
2022/07/24 05:24:31;;;;;;;6.07;3.42;;;;;;;20.07;73.85;101908.81;4946407;28;20183;-62
2022/07/24 05:26:56;;;;;;;5.03;3.45;;;;;;;20.10;73.85;101920.28;4944979;28;20062;-62
2022/07/24 05:29:22;;;;;;;9.80;3.97;;;;;;;20.17;74.16;101917.16;4945699;28;20027;-62
2022/07/24 05:31:47;;;;;;;5.70;3.72;;;;;;;20.24;73.65;101922.16;4945736;28;20047;-63
2022/07/24 05:34:13;;;;;;;5.47;3.55;;;;;;;20.30;73.75;101928.03;4944216;28;20035;-62
2022/07/24 05:36:38;;;;;;;7.57;3.70;;;;;;;20.41;73.53;101924.69;4945005;28;20086;-63
2022/07/24 05:39:04;;;;;;;9.88;4.45;;;;;;;20.49;73.66;101931.41;4943347;28;20035;-61
2022/07/24 05:41:29;;;;;;;7.25;4.25;;;;;;;20.42;74.32;101926.44;4944298;28;20042;-58
2022/07/24 05:43:55;;;;;;;5.05;3.47;;;;;;;20.61;73.71;101927.16;4947612;28;20516;-62
2022/07/24 05:46:20;;;;;;;5.93;3.95;;;;;;;20.81;73.05;101931.31;4931332;28;20461;-57
2022/07/24 05:48:46;;;;;;;10.55;4.25;;;;;;;20.92;72.62;101923.53;4948921;28;20023;-59
2022/07/24 05:51:11;;;;;;;9.52;4.93;;;;;;;21.14;72.33;101922.22;4946591;28;20049;-59
2022/07/24 05:53:37;;;;;;;8.65;4.15;;;;;;;21.30;71.88;101923.94;4949945;28;20056;-59
2022/07/24 05:56:03;;;;;;;9.82;4.80;;;;;;;21.46;70.71;101915.78;4948972;28;20046;-59
2022/07/24 05:58:28;;;;;;;7.35;4.72;;;;;;;21.59;70.09;101923.91;4949146;28;20024;-60
2022/07/24 06:00:54;;;;;;;6.50;5.03;;;;;;;21.86;69.85;101922.25;4949682;28;20082;-59
2022/07/24 06:03:19;;;;;;;7.28;3.88;;;;;;;22.11;69.29;101923.31;4948914;28;20015;-60
2022/07/24 06:05:44;;;;;;;9.30;4.55;;;;;;;22.20;68.31;101920.03;4948535;28;20027;-59
2022/07/24 06:08:10;;;;;;;6.13;4.38;;;;;;;22.43;67.53;101914.94;4948949;28;20025;-60
2022/07/24 06:10:35;;;;;;;7.10;3.85;;;;;;;22.54;66.86;101908.81;4948704;28;20021;-62
2022/07/24 06:13:01;;;;;;;6.35;3.95;;;;;;;22.39;67.27;101914.28;4948675;28;20889;-59
2022/07/24 06:15:26;;;;;;;7.95;3.55;;;;;;;22.59;66.51;101904.03;4931668;28;20114;-59
2022/07/24 06:17:51;;;;;;;6.38;3.83;;;;;;;22.74;66.15;101912.00;4949362;28;20015;-59
2022/07/24 06:20:17;;;;;;;4.72;3.10;;;;;;;22.68;66.61;101906.13;4947869;28;20542;-59
2022/07/24 06:22:44;;;;;;;4.43;3.53;;;;;;;22.70;66.07;101903.31;4948403;28;20023;-60
2022/07/24 06:25:10;;;;;;;5.30;3.22;;;;;;;22.80;65.62;101914.28;4930884;28;20474;-59
2022/07/24 06:27:43;;;;;;;3.67;2.63;;;;;;;22.91;65.20;101909.00;4947648;28;20034;-60
2022/07/24 06:30:17;;;;;;;4.93;2.40;;;;;;;22.87;64.16;101918.25;4948517;28;20431;-59
2022/07/24 06:32:43;;;;;;;3.67;2.80;;;;;;;22.96;63.58;101927.50;4942939;28;20027;-61
2022/07/24 06:35:09;;;;;;;2.63;2.42;;;;;;;23.12;63.33;101926.44;4948116;28;22132;-60
2022/07/24 06:37:34;;;;;;;4.13;2.40;;;;;;;23.28;62.80;101931.56;4949794;28;20107;-60
2022/07/24 06:40:00;;;;;;;4.20;2.60;;;;;;;23.45;62.39;101927.72;4948528;28;20031;-59
2022/07/24 06:42:25;;;;;;;2.70;2.50;;;;;;;23.64;61.17;101915.63;4947536;28;20086;-59
2022/07/24 06:44:50;;;;;;;2.50;2.17;;;;;;;23.61;60.44;101914.00;4948842;28;20031;-59
2022/07/24 06:47:16;;;;;;;4.30;2.45;;;;;;;23.72;60.40;101919.47;4948321;28;20016;-60
2022/07/24 06:49:41;;;;;;;9.05;2.30;;;;;;;23.86;60.00;101922.97;4948439;28;20081;-59
2022/07/24 06:52:06;;;;;;;4.70;2.28;;;;;;;23.88;59.75;101923.72;4948487;28;20115;-60
2022/07/24 06:54:31;;;;;;;5.45;2.50;;;;;;;23.73;60.45;101915.81;4948450;28;20174;-60
2022/07/24 06:56:57;;;;;;;5.80;2.65;;;;;;;23.56;60.40;101916.16;4947037;28;20050;-59
2022/07/24 06:59:22;;;;;;;2.70;2.22;;;;;;;23.40;60.50;101913.72;4948465;28;20058;-62
2022/07/24 07:01:47;;;;;;;3.50;2.30;;;;;;;23.37;61.18;101914.81;4948632;28;20087;-62
2022/07/24 07:04:13;;;;;;;4.82;2.45;;;;;;;23.38;61.02;101921.91;4946572;28;20043;-62
2022/07/24 07:06:38;;;;;;;5.93;2.22;;;;;;;23.27;60.94;101914.56;4947904;28;20035;-61
2022/07/24 07:09:03;;;;;;;7.43;2.28;;;;;;;23.39;60.57;101918.25;4948645;28;20582;-60
2022/07/24 07:11:29;;;;;;;4.72;2.42;;;;;;;23.51;60.33;101910.28;4945883;28;20128;-61
2022/07/24 07:13:54;;;;;;;6.97;2.60;;;;;;;23.66;60.44;101913.69;4948412;28;20520;-59
2022/07/24 07:16:19;;;;;;;2.92;2.15;;;;;;;23.57;60.16;101910.69;4947126;28;20066;-60
2022/07/24 07:18:45;;;;;;;3.63;2.70;;;;;;;23.59;60.18;101910.56;4947467;28;20035;-60
2022/07/24 07:21:10;;;;;;;5.63;2.33;;;;;;;23.46;60.84;101907.91;4948361;28;20147;-58
2022/07/24 07:23:35;;;;;;;3.78;2.17;;;;;;;23.30;61.02;101908.13;4947325;28;20355;-59
2022/07/24 07:26:01;;;;;;;5.32;2.15;;;;;;;23.29;61.46;101919.84;4947741;28;20027;-60
2022/07/24 07:28:26;;;;;;;4.07;2.10;;;;;;;23.21;61.34;101921.25;4946957;28;20049;-60
2022/07/24 07:30:51;;;;;;;3.65;2.15;;;;;;;23.40;61.34;101913.72;4948062;28;20075;-61
2022/07/24 07:33:17;;;;;;;2.88;2.40;;;;;;;23.43;60.52;101914.38;4929488;28;20027;-63
2022/07/24 07:35:42;;;;;;;3.70;2.33;;;;;;;23.52;60.63;101928.13;4947514;28;20035;-62
2022/07/24 07:38:08;;;;;;;3.90;2.00;;;;;;;23.64;60.40;101918.31;4944765;28;20027;-63
2022/07/24 07:40:33;;;;;;;2.40;1.98;;;;;;;23.71;59.88;101923.13;4947337;28;20730;-61
2022/07/24 07:42:59;;;;;;;4.32;2.00;;;;;;;23.85;59.61;101929.31;4946905;28;20023;-62
2022/07/24 07:45:24;;;;;;;3.50;2.28;;;;;;;23.73;59.24;101931.97;4947164;28;20102;-60
2022/07/24 07:47:49;;;;;;;3.85;1.55;;;;;;;23.84;58.72;101922.25;4947461;28;20035;-60
2022/07/24 07:50:14;;;;;;;3.55;1.73;;;;;;;23.94;59.05;101920.59;4946463;28;20058;-61
2022/07/24 07:52:41;;;;;;;2.67;1.90;;;;;;;23.99;59.25;101920.25;4947394;28;20087;-60
2022/07/24 07:55:07;;;;;;;2.50;1.90;;;;;;;24.15;58.45;101909.22;4946455;28;20066;-61
2022/07/24 07:57:32;;;;;;;2.05;1.90;;;;;;;24.17;58.93;101914.47;4947868;28;20027;-61
2022/07/24 07:59:58;;;;;;;4.35;1.90;;;;;;;24.23;58.06;101905.94;4946233;28;20086;-60
2022/07/24 08:02:23;;;;;;;6.78;1.70;;;;;;;24.20;58.19;101917.78;4946229;28;20451;-60
2022/07/24 08:04:48;;;;;;;2.83;1.83;;;;;;;24.26;58.32;101911.06;4946760;28;20394;-59
2022/07/24 08:07:14;;;;;;;1.88;1.77;;;;;;;24.32;58.70;101905.22;4945882;28;20505;-60
2022/07/24 08:09:39;;;;;;;3.67;1.90;;;;;;;24.47;58.14;101891.56;4947440;28;20032;-60
2022/07/24 08:12:05;;;;;;;4.13;1.88;;;;;;;24.32;57.42;101897.13;4935700;28;20458;-60
2022/07/24 08:14:30;;;;;;;4.10;1.92;;;;;;;24.31;57.12;101897.25;4933122;28;20031;-61
2022/07/24 08:16:56;;;;;;;4.22;2.00;;;;;;;24.35;56.42;101901.47;4935663;28;20106;-60
2022/07/24 08:19:21;;;;;;;3.40;1.88;;;;;;;24.50;56.44;101895.88;4938492;28;20386;-61
2022/07/24 08:21:47;;;;;;;2.70;1.70;;;;;;;24.60;54.90;101896.88;4934810;28;20034;-60
2022/07/24 08:24:12;;;;;;;1.98;1.70;;;;;;;24.55;54.80;101899.03;4918849;29;20015;-59
2022/07/24 08:26:38;;;;;;;1.80;1.60;;;;;;;24.71;54.10;101894.19;4936524;28;20039;-60
2022/07/24 08:29:03;;;;;;;3.15;2.03;;;;;;;24.92;54.27;101895.34;4937346;28;20058;-59
2022/07/24 08:31:29;;;;;;;3.00;1.85;;;;;;;25.04;53.89;101888.97;4935880;28;20038;-60
2022/07/24 08:33:54;;;;;;;2.80;2.20;;;;;;;25.09;53.48;101892.19;4945601;28;20035;-60
2022/07/24 08:36:20;;;;;;;3.53;1.85;;;;;;;25.15;53.33;101896.22;4946214;28;20035;-62
2022/07/24 08:38:45;;;;;;;3.33;1.98;;;;;;;25.24;53.32;101887.41;4945721;28;20035;-59
2022/07/24 08:41:12;;;;;;;4.68;1.75;;;;;;;25.26;52.26;101886.41;4945722;28;20046;-60
2022/07/24 08:43:37;;;;;;;2.90;1.73;;;;;;;25.37;51.72;101891.78;4945582;28;20118;-63
2022/07/24 08:46:03;;;;;;;5.35;2.30;;;;;;;25.47;52.10;101892.75;4947207;28;20102;-60
2022/07/24 08:48:29;;;;;;;1.65;1.55;;;;;;;25.42;51.95;101881.47;4946089;28;20073;-60
2022/07/24 08:50:55;;;;;;;2.92;1.90;;;;;;;25.27;51.76;101882.72;4929612;28;20037;-60
2022/07/24 08:53:22;;;;;;;2.67;1.80;;;;;;;25.28;51.34;101885.28;4928928;28;20050;-60
2022/07/24 08:55:48;;;;;;;3.95;2.10;;;;;;;25.27;51.51;101888.09;4929233;28;20062;-61
2022/07/24 08:58:13;;;;;;;2.95;2.10;;;;;;;25.19;51.14;101892.28;4946111;28;20070;-61
2022/07/24 09:00:38;;;;;;;3.40;2.20;;;;;;;25.21;51.24;101890.34;4947063;28;20030;-58
2022/07/24 09:03:04;;;;;;;3.60;2.10;;;;;;;25.33;51.26;101887.63;4946106;28;20059;-59
2022/07/24 09:05:32;;;;;;;2.22;1.98;;;;;;;25.33;51.07;101895.72;4946188;28;20074;-60
2022/07/24 09:08:07;;;;;;;3.67;1.70;;;;;;;25.40;50.73;101893.38;4946317;28;20063;-59
2022/07/24 09:10:33;;;;;;;3.42;2.47;;;;;;;25.48;51.59;101886.38;4946511;28;20040;-59
2022/07/24 09:13:15;;;;;;;2.00;1.80;;;;;;;25.80;51.60;101882.06;4946277;28;20455;-59
2022/07/24 09:15:46;;;;;;;3.13;2.08;;;;;;;25.99;50.77;101889.47;4946671;28;20429;-60
2022/07/24 09:18:25;;;;;;;1.80;1.70;;;;;;;26.11;49.67;101873.22;4946639;28;20031;-60
2022/07/24 09:20:50;;;;;;;2.05;1.70;;;;;;;26.14;49.31;101872.94;4950449;28;20031;-58
2022/07/24 09:23:19;;;;;;;4.68;1.98;;;;;;;26.11;50.23;101881.31;4949740;28;20098;-59
2022/07/24 09:25:49;;;;;;;;;;;;;;;26.08;49.54;101876.16;4950225;28;20031;-58
2022/07/24 09:28:14;;;;;;;2.35;1.77;;;;;;;26.09;49.64;101873.34;4949814;28;19918;-60
2022/07/24 09:30:43;;;;;;;2.15;1.70;;;;;;;26.19;49.95;101862.59;4932959;28;20078;-61
2022/07/24 09:33:11;;;;;;;2.20;1.90;;;;;;;26.11;50.85;101870.50;4949597;28;20470;-60
2022/07/24 09:35:47;;;;;;;4.47;1.88;;;;;;;26.18;49.74;101869.00;4950926;28;20046;-62
2022/07/24 09:38:14;;;;;;;2.33;1.98;;;;;;;26.15;49.72;101871.97;4949145;28;20042;-60
2022/07/24 09:40:42;;;;;;;6.50;2.15;;;;;;;26.20;50.46;101875.13;4949702;28;20126;-61
2022/07/24 09:43:30;;;;;;;4.43;1.83;;;;;;;26.37;50.27;101868.31;4949255;28;20027;-61
2022/07/24 09:46:04;;;;;;;3.35;1.85;;;;;;;26.48;50.14;101872.78;4950086;28;20554;-61
2022/07/24 09:48:35;;;;;;;2.10;1.90;;;;;;;26.52;49.78;101883.34;4949250;28;20110;-62
2022/07/24 09:51:01;;;;;;;4.15;1.70;;;;;;;26.45;50.10;101872.19;4949787;28;20035;-60
2022/07/24 09:53:29;;;;;;;2.03;1.65;;;;;;;26.49;49.93;101863.69;4949151;28;20031;-60
2022/07/24 09:56:02;;;;;;;3.95;1.67;;;;;;;26.59;49.23;101862.91;4945286;28;20033;-60
2022/07/24 09:58:29;;;;;;;1.60;1.50;;;;;;;26.49;49.01;101877.19;4939540;28;20059;-62
2022/07/24 10:00:56;;;;;;;2.85;1.77;;;;;;;26.64;49.23;101871.47;4936304;28;20028;-60
2022/07/24 10:03:26;;;;;;;2.38;1.80;;;;;;;26.71;49.77;101856.44;4935245;28;20043;-61
2022/07/24 10:05:58;;;;;;;2.65;2.00;;;;;;;26.66;50.04;101858.66;4950429;28;20430;-62
2022/07/24 10:08:24;;;;;;;3.15;1.95;;;;;;;26.77;49.02;101859.56;4949453;28;20035;-59
2022/07/24 10:10:50;;;;;;;2.80;2.05;;;;;;;26.83;49.51;101875.25;4948102;28;20603;-61
2022/07/24 10:13:16;;;;;;;2.72;1.73;;;;;;;26.88;48.80;101849.53;4949617;28;20059;-59
2022/07/24 10:15:59;;;;;;;4.35;1.85;;;;;;;27.06;48.55;101858.88;4948921;28;20418;-60
2022/07/24 10:18:39;;;;;;;2.90;2.00;;;;;;;27.03;48.06;101851.88;4948778;28;20039;-60
2022/07/24 10:21:10;;;;;;;2.35;1.63;;;;;;;27.13;48.36;101857.34;4933078;29;20035;-61
2022/07/24 10:24:10;;;;;;;4.68;2.20;;;;;;;27.17;47.80;101841.69;4947440;28;20019;-61
2022/07/24 10:26:40;;;;;;;1.88;1.73;;;;;;;27.24;48.26;101843.69;4934718;28;20376;-60
2022/07/24 10:29:11;;;;;;;3.00;2.00;;;;;;;27.32;47.59;101843.03;4947923;28;20031;-60
2022/07/24 10:31:47;;;;;;;2.75;1.88;;;;;;;27.37;47.24;101846.19;4949285;28;20031;-59
2022/07/24 10:34:27;;;;;;;4.72;1.77;;;;;;;27.59;46.06;101837.94;4947762;28;20054;-59
2022/07/24 10:37:04;;;;;;;2.63;1.67;;;;;;;27.73;46.37;101845.69;4948123;28;20115;-59
2022/07/24 10:40:12;;;;;;;1.63;1.52;;;;;;;27.85;46.25;101840.13;4948766;28;20046;-59
2022/07/24 10:43:13;;;;;;;4.43;1.50;;;;;;;28.10;45.39;101845.94;4928417;28;20022;-61
2022/07/24 10:45:45;;;;;;;3.35;1.58;;;;;;;28.00;44.93;101838.66;4942637;28;20071;-59
2022/07/24 10:48:32;;;;;;;1.92;1.73;;;;;;;27.87;45.25;101835.41;4946323;28;20031;-60
2022/07/24 10:50:58;;;;;;;1.90;1.80;;;;;;;28.17;44.66;101836.22;4924142;28;20035;-59
2022/07/24 10:53:42;;;;;;;2.92;1.90;;;;;;;28.31;43.94;101825.97;4947681;28;20033;-59
2022/07/24 10:56:28;;;;;;;3.80;1.60;;;;;;;28.34;44.04;101826.56;4947251;28;20026;-60
2022/07/24 10:59:07;;;;;;;2.95;1.55;;;;;;;28.56;44.37;101826.34;4947687;28;20380;-61
2022/07/24 11:01:44;;;;;;;3.17;1.83;;;;;;;28.54;43.69;101826.50;4915101;29;20653;-61
2022/07/24 11:04:19;;;;;;;2.50;1.80;;;;;;;28.66;43.57;101835.31;4947376;28;20038;-61
2022/07/24 11:06:44;;;;;;;3.35;1.80;;;;;;;28.74;43.30;101824.56;4948079;28;20026;-60
2022/07/24 11:09:10;;;;;;;4.85;2.00;;;;;;;28.77;42.73;101820.69;4947774;28;20122;-61
2022/07/24 11:11:41;;;;;;;2.72;2.00;;;;;;;28.83;42.60;101819.25;4947852;28;20035;-60
2022/07/24 11:14:07;;;;;;;5.00;2.10;;;;;;;28.95;42.41;101817.25;4947945;28;20023;-61
2022/07/24 11:16:33;;;;;;;6.93;2.10;;;;;;;28.84;42.32;101816.38;4930684;28;20011;-59
2022/07/24 11:18:59;;;;;;;3.08;1.58;;;;;;;28.92;42.69;101812.91;4947573;28;20066;-60